Huvudsida
METAR-TAF:

METAR-TAF

Flygplatser :

George Bush Intercontinental Airport

Houston, Texas, USA

latitud: 29-59-33N, longitud: 095-21-50W, höjd: 29 m

Aktuellt väderrapport

Denna rapport gjordes för 1 timme och 6 minuter sedan, klockan 05:53 UTC
Vind 3 kt varierande vindriktning
Temperatur 17°C
Fuktighet 68%
Tryck 1022 hPa
Sikt: 16.1 km
Få moln på en höjd av 25000 ft

METAR: KIAH 260553Z VRB03KT 10SM FEW250 17/11 A3018 RMK AO2 SLP220 T01720106 10267 20172 403060172 50012

Tid: 01:59 (06:59 UTC)

Väderprognos

Denna rapport gjordes för 1 timme och 39 minuter sedan, klockan 05:20 UTC
Prognos gäller från 26 kl. 06 UTC till 27 kl. 12 UTC
Vind 7 kt från nord/nordost
Sikt: 10 km
Spridda moln på en höjd av 25000 ft
Från 27 kl. 0100 UTC
Vind 3 kt från nordost
Sikt: 10 km
Spridda moln på en höjd av 25000 ft
Från 27 kl. 1100 UTC
Vind 4 kt från ost
Sikt: 10 km
Spridda moln på en höjd av 25000 ft

TAF: KIAH 260520Z 2606/2712 02007KT P6SM SCT250 FM270100 04003KT P6SM SCT250 FM271100 09004KT P6SM SCT250

Aktuella väderrapporter och prognoser från 4000 flygplatser (METAR- och TAF-rapporter).

De tillgängliga stationerna syns som gula och röda prickar på kartan.

För musen över prickarna för att se namnen på stationerna.

Klicka sedan för att få väderrapporter och prognoser.

För att ändra kartan: Klicka på de gröna knapparna med ett svart kors på för att zooma in; den gröna knappen med ett streck på för att zooma ut; eller på de gröna pilarna för angränsande kartor.


METAR-TAF: